Time;durP1;ratioP1;P1;durP2;ratioP2;P2;SDS_P1;SDS_P2;PMS_P1;PMS_P2;Temp;Humidity;BMP_temperature;BMP_pressure;BME280_temperature;BME280_humidity;BME280_pressure;Samples;Min_cycle;Max_cycle;Signal;HPM_P1;HPM_P2
2022/09/24 00:01:26;;;;;;;20.90;17.40;;;14.00;99.90;;;;;;5137321;27;20207;-92
2022/09/24 00:03:54;;;;;;;20.10;17.53;;;13.90;99.90;;;;;;5137213;27;20195;-92
2022/09/24 00:06:22;;;;;;;20.43;17.57;;;13.90;99.90;;;;;;5141845;27;20203;-91
2022/09/24 00:08:53;;;;;;;23.00;17.77;;;13.80;99.90;;;;;;5146321;27;20184;-93
2022/09/24 00:11:23;;;;;;;21.30;17.53;;;13.80;99.90;;;;;;5141263;27;20199;-91
2022/09/24 00:13:53;;;;;;;20.67;17.97;;;13.80;99.90;;;;;;5135996;27;20194;-90
2022/09/24 00:16:24;;;;;;;21.80;17.60;;;13.80;99.90;;;;;;5135968;27;20195;-91
2022/09/24 00:18:54;;;;;;;20.30;17.20;;;13.80;99.90;;;;;;5136053;27;20192;-89
2022/09/24 00:21:23;;;;;;;22.03;17.90;;;13.80;99.90;;;;;;5136030;27;20203;-87
2022/09/24 00:23:53;;;;;;;19.83;16.83;;;13.70;99.90;;;;;;5135753;27;20188;-92
2022/09/24 00:29:10;;;;;;;22.03;17.27;;;13.80;99.90;;;;;;5141534;27;20314;-90
2022/09/24 00:31:38;;;;;;;19.40;17.30;;;13.80;99.90;;;;;;5140989;27;20250;-87
2022/09/24 00:34:06;;;;;;;21.50;17.37;;;13.80;99.90;;;;;;5140678;27;20196;-87
2022/09/24 00:36:34;;;;;;;19.23;17.23;;;13.70;99.90;;;;;;5139799;27;20207;-90
2022/09/24 00:39:01;;;;;;;19.63;15.57;;;13.80;99.90;;;;;;5137632;27;20195;-91
2022/09/24 00:41:32;;;;;;;18.30;14.60;;;13.70;99.90;;;;;;5137235;27;20196;-88
2022/09/24 00:44:00;;;;;;;20.07;16.00;;;13.60;99.90;;;;;;5136099;27;20195;-92
2022/09/24 00:46:40;;;;;;;18.07;14.77;;;13.60;99.90;;;;;;5137927;27;20214;-90
2022/09/24 00:49:13;;;;;;;19.63;14.00;;;13.60;99.90;;;;;;5141439;27;20570;-88
2022/09/24 00:51:43;;;;;;;17.37;13.77;;;13.70;99.90;;;;;;5140881;27;20196;-87
2022/09/24 00:54:16;;;;;;;18.83;16.17;;;13.70;99.90;;;;;;5136639;27;20412;-90
2022/09/24 00:56:46;;;;;;;16.03;13.50;;;13.90;99.90;;;;;;5136133;27;20192;-94
2022/09/24 00:59:16;;;;;;;16.00;14.30;;;13.90;99.90;;;;;;5134829;27;20235;-92
2022/09/24 01:01:49;;;;;;;17.10;13.50;;;13.80;99.90;;;;;;5133971;27;20235;-87
2022/09/24 01:04:21;;;;;;;14.10;12.60;;;13.70;99.90;;;;;;5135160;27;20192;-88
2022/09/24 01:06:55;;;;;;;13.90;12.50;;;13.70;99.90;;;;;;5135364;27;20651;-90
2022/09/24 01:09:24;;;;;;;15.53;12.87;;;13.70;99.90;;;;;;5134677;27;20228;-88
2022/09/24 01:12:06;;;;;;;13.20;11.83;;;13.60;99.90;;;;;;5135427;27;20571;-87
2022/09/24 01:14:57;;;;;;;16.27;12.37;;;13.50;99.90;;;;;;5135926;28;20203;-87
2022/09/24 01:17:36;;;;;;;14.20;11.67;;;13.50;99.90;;;;;;5135906;28;20242;-92
2022/09/24 01:20:45;;;;;;;15.40;12.47;;;13.50;99.90;;;;;;5136112;28;20210;-88
2022/09/24 01:23:55;;;;;;;15.30;13.63;;;13.40;99.90;;;;;;5135516;28;20411;-91
2022/09/24 01:26:44;;;;;;;15.23;12.13;;;13.40;99.90;;;;;;5087477;27;20203;-88
2022/09/24 01:29:40;;;;;;;13.27;11.87;;;13.40;99.90;;;;;;5136755;28;20188;-88
2022/09/24 01:32:19;;;;;;;14.60;12.40;;;13.50;99.90;;;;;;5136404;28;20571;-93
2022/09/24 01:34:50;;;;;;;15.80;13.33;;;13.50;99.90;;;;;;5144183;28;20200;-91
2022/09/24 01:37:22;;;;;;;14.90;12.80;;;13.50;99.90;;;;;;5153285;28;20203;-87
2022/09/24 01:39:52;;;;;;;15.30;12.87;;;13.50;99.90;;;;;;5154044;28;20203;-86
2022/09/24 01:42:21;;;;;;;16.03;13.37;;;13.60;99.90;;;;;;5155628;28;20187;-91
2022/09/24 01:44:50;;;;;;;16.67;14.37;;;13.60;99.90;;;;;;5157926;28;20202;-89
2022/09/24 01:47:24;;;;;;;14.90;12.97;;;13.50;99.90;;;;;;5158047;27;20203;-88
2022/09/24 01:49:52;;;;;;;15.10;12.57;;;13.50;99.90;;;;;;5158650;27;20219;-91
2022/09/24 01:52:27;;;;;;;14.30;12.77;;;13.50;99.90;;;;;;5153784;28;20191;-92
2022/09/24 01:55:19;;;;;;;17.57;13.60;;;13.50;99.90;;;;;;5142643;28;20198;-92
2022/09/24 01:57:52;;;;;;;17.67;13.40;;;13.60;99.90;;;;;;5145255;28;20200;-91
2022/09/24 02:00:24;;;;;;;15.63;13.73;;;13.50;99.90;;;;;;5147107;28;20211;-92
2022/09/24 02:02:58;;;;;;;16.53;14.07;;;13.70;99.90;;;;;;5148996;28;20543;-94
2022/09/24 02:05:34;;;;;;;17.37;13.97;;;13.70;99.90;;;;;;5148685;28;20191;-92
2022/09/24 02:08:07;;;;;;;19.93;14.27;;;13.70;99.90;;;;;;5141884;28;20199;-87
2022/09/24 02:10:41;;;;;;;16.93;14.63;;;13.70;99.90;;;;;;5140007;28;20235;-91
2022/09/24 02:13:17;;;;;;;17.93;13.83;;;13.70;99.90;;;;;;5144420;28;20211;-93
2022/09/24 02:15:48;;;;;;;16.60;14.10;;;13.70;99.90;;;;;;5146959;28;20206;-91
2022/09/24 02:18:32;;;;;;;18.13;14.57;;;13.60;99.90;;;;;;5146366;28;20206;-91
2022/09/24 02:21:04;;;;;;;20.27;14.30;;;13.70;99.90;;;;;;5146505;27;20207;-89
2022/09/24 02:23:38;;;;;;;17.93;14.60;;;13.70;99.90;;;;;;5147099;27;20195;-89
2022/09/24 02:26:06;;;;;;;18.93;15.20;;;13.90;99.90;;;;;;5150260;27;20214;-92
2022/09/24 02:28:39;;;;;;;20.17;15.10;;;13.80;99.90;;;;;;5138173;27;20642;-91
2022/09/24 02:31:18;;;;;;;18.80;15.27;;;13.90;99.90;;;;;;5138303;27;20251;-92
2022/09/24 02:36:35;;;;;;;18.70;15.53;;;13.80;99.90;;;;;;5138155;27;20194;-90
2022/09/24 02:39:02;;;;;;;18.40;14.57;;;13.80;99.90;;;;;;5135236;27;20204;-92
2022/09/24 02:41:31;;;;;;;20.17;15.27;;;13.80;99.90;;;;;;5135960;27;20200;-90
2022/09/24 02:43:58;;;;;;;19.77;14.97;;;13.90;99.90;;;;;;5145306;27;20204;-90
2022/09/24 02:46:26;;;;;;;19.07;15.17;;;13.80;99.90;;;;;;5149869;27;20204;-91
2022/09/24 02:48:53;;;;;;;22.17;15.93;;;13.80;99.90;;;;;;5151589;27;20200;-89
2022/09/24 02:51:21;;;;;;;21.30;15.37;;;13.80;99.90;;;;;;5151265;27;20228;-91
2022/09/24 02:53:48;;;;;;;18.87;15.50;;;13.90;99.90;;;;;;5158593;27;20221;-90
2022/09/24 02:56:17;;;;;;;21.00;15.23;;;13.90;99.90;;;;;;5142346;27;20287;-92
2022/09/24 02:58:44;;;;;;;19.90;16.07;;;13.80;99.90;;;;;;5138086;27;20228;-92
2022/09/24 03:01:11;;;;;;;19.47;15.77;;;13.90;99.90;;;;;;5138468;27;20207;-92
2022/09/24 03:03:40;;;;;;;18.50;15.33;;;14.00;99.90;;;;;;5138862;27;20200;-92
2022/09/24 03:06:13;;;;;;;21.50;16.10;;;13.90;99.90;;;;;;5138378;27;20561;-92
2022/09/24 03:08:41;;;;;;;21.03;16.00;;;13.90;99.90;;;;;;5137894;27;20553;-89
2022/09/24 03:11:18;;;;;;;20.97;15.47;;;13.90;99.90;;;;;;5137900;27;20272;-91
2022/09/24 03:13:45;;;;;;;24.80;17.83;;;14.00;99.90;;;;;;5137343;27;20435;-90
2022/09/24 03:16:13;;;;;;;19.73;16.40;;;13.90;99.90;;;;;;5137415;27;20188;-92
2022/09/24 03:18:48;;;;;;;22.50;16.73;;;14.00;99.90;;;;;;5137566;27;20191;-93
2022/09/24 03:21:18;;;;;;;21.50;16.97;;;14.00;99.90;;;;;;5137473;27;20179;-92
2022/09/24 03:23:49;;;;;;;24.47;17.40;;;13.90;99.90;;;;;;5137044;27;20558;-92
2022/09/24 03:26:21;;;;;;;21.60;16.57;;;13.90;99.90;;;;;;5137269;27;20259;-92
2022/09/24 03:28:48;;;;;;;22.50;16.63;;;13.80;99.90;;;;;;5149714;27;20200;-91
2022/09/24 03:31:14;;;;;;;20.13;16.87;;;13.90;99.90;;;;;;5148487;27;20831;-91
2022/09/24 03:33:44;;;;;;;20.47;16.00;;;13.90;99.90;;;;;;5149291;27;20267;-90
2022/09/24 03:36:15;;;;;;;22.73;17.20;;;13.90;99.90;;;;;;5153297;27;20198;-91
2022/09/24 03:38:46;;;;;;;20.73;17.07;;;13.90;99.90;;;;;;5150013;27;20249;-92
2022/09/24 03:41:13;;;;;;;24.75;18.02;;;13.90;99.90;;;;;;5148747;27;20483;-91
2022/09/24 03:43:43;;;;;;;23.37;17.87;;;13.80;99.90;;;;;;5137453;27;20188;-93
2022/09/24 03:46:18;;;;;;;25.50;17.87;;;13.80;99.90;;;;;;5137091;27;20199;-91
2022/09/24 03:48:47;;;;;;;23.07;17.63;;;13.80;99.90;;;;;;5137044;27;20196;-90
2022/09/24 03:51:43;;;;;;;24.23;17.07;;;13.80;99.90;;;;;;5136952;27;20226;-92
2022/09/24 03:54:13;;;;;;;25.30;18.53;;;13.80;99.90;;;;;;5136770;27;20199;-91
2022/09/24 03:56:41;;;;;;;26.40;19.67;;;13.80;99.90;;;;;;5137131;27;20199;-92
2022/09/24 03:59:09;;;;;;;27.50;19.47;;;13.90;99.90;;;;;;5148393;27;20244;-92
2022/09/24 04:01:38;;;;;;;28.93;20.27;;;13.80;99.90;;;;;;5148798;27;20233;-90
2022/09/24 04:04:05;;;;;;;29.20;21.37;;;13.70;99.90;;;;;;5151902;27;20215;-90
2022/09/24 04:06:32;;;;;;;30.17;21.70;;;13.70;99.90;;;;;;5150987;27;20191;-91
2022/09/24 04:09:02;;;;;;;32.63;21.03;;;13.80;99.90;;;;;;5157452;27;20255;-93
2022/09/24 04:11:29;;;;;;;33.03;22.90;;;13.80;99.90;;;;;;5145182;27;20232;-92
2022/09/24 04:13:58;;;;;;;31.93;23.23;;;13.90;99.90;;;;;;5133834;28;20196;-88
2022/09/24 04:16:30;;;;;;;38.57;24.27;;;13.80;99.90;;;;;;5137448;28;20179;-89
2022/09/24 04:18:57;;;;;;;35.40;23.80;;;13.80;99.90;;;;;;5137257;28;20193;-91
2022/09/24 04:21:25;;;;;;;37.17;25.53;;;13.90;99.90;;;;;;5134373;28;20188;-90
2022/09/24 04:23:51;;;;;;;34.40;24.20;;;13.80;99.90;;;;;;5136171;28;20192;-92
2022/09/24 04:26:20;;;;;;;37.90;25.73;;;13.80;99.90;;;;;;5132582;28;20211;-92
2022/09/24 04:28:49;;;;;;;35.57;25.90;;;13.80;99.90;;;;;;5129346;28;20257;-93
2022/09/24 04:31:17;;;;;;;39.03;25.70;;;13.70;99.90;;;;;;5146553;27;20235;-92
2022/09/24 04:33:44;;;;;;;36.30;24.43;;;13.80;99.90;;;;;;5155980;27;20267;-93
2022/09/24 04:36:10;;;;;;;35.23;25.10;;;13.70;99.90;;;;;;5150702;27;20247;-92
2022/09/24 04:38:37;;;;;;;41.88;32.78;;;13.70;99.90;;;;;;5136267;27;20407;-93
2022/09/24 04:41:06;;;;;;;35.83;26.43;;;13.70;99.90;;;;;;5141150;27;20210;-90
2022/09/24 04:43:35;;;;;;;37.17;25.90;;;13.60;99.90;;;;;;5157668;27;20192;-91
2022/09/24 04:46:02;;;;;;;36.33;23.60;;;13.60;99.90;;;;;;5158382;27;20249;-94
2022/09/24 04:48:29;;;;;;;34.77;25.63;;;13.60;99.90;;;;;;5157417;27;20192;-91
2022/09/24 04:50:56;;;;;;;34.73;24.70;;;13.70;99.90;;;;;;5158437;27;20212;-93
2022/09/24 04:53:23;;;;;;;33.90;25.30;;;13.70;99.90;;;;;;5158300;27;20187;-92
2022/09/24 04:55:56;;;;;;;37.77;25.10;;;13.70;99.90;;;;;;5159380;27;20200;-92
2022/09/24 04:58:23;;;;;;;33.97;25.40;;;13.70;99.90;;;;;;5158780;27;20231;-89
2022/09/24 05:00:52;;;;;;;33.03;24.97;;;13.80;99.90;;;;;;5152934;27;20200;-88
2022/09/24 05:03:20;;;;;;;38.50;26.30;;;13.60;99.90;;;;;;5130001;27;20196;-92
2022/09/24 05:05:49;;;;;;;36.53;24.80;;;13.60;99.90;;;;;;5119370;28;20196;-92
2022/09/24 05:08:16;;;;;;;42.22;32.85;;;13.60;99.90;;;;;;5123470;28;20440;-93
2022/09/24 05:10:49;;;;;;;34.60;25.60;;;13.70;99.90;;;;;;5125049;28;20232;-93
2022/09/24 05:13:16;;;;;;;37.20;25.53;;;13.70;99.90;;;;;;5124429;28;20271;-93
2022/09/24 05:15:45;;;;;;;34.97;25.43;;;13.70;99.90;;;;;;5123141;28;20204;-93
2022/09/24 05:18:13;;;;;;;34.67;24.90;;;13.80;99.90;;;;;;5123655;28;20189;-94
2022/09/24 05:20:40;;;;;;;34.93;24.07;;;13.90;99.90;;;;;;5123819;28;20201;-92
2022/09/24 05:23:08;;;;;;;35.10;25.10;;;13.90;99.90;;;;;;5129137;28;20226;-92
2022/09/24 05:27:07;;;;;;;33.20;24.93;;;13.80;99.90;;;;;;5130165;28;20727;-93
2022/09/24 05:28:21;;;;;;;33.67;24.60;;;13.80;99.90;;;;;;5123342;28;20200;-92
2022/09/24 05:30:48;;;;;;;38.43;25.47;;;13.90;99.90;;;;;;5116277;28;20224;-94
2022/09/24 05:33:16;;;;;;;35.30;24.83;;;13.90;99.90;;;;;;5116578;28;20200;-93
2022/09/24 05:35:52;;;;;;;38.60;26.10;;;14.00;99.90;;;;;;5116281;28;20256;-92
2022/09/24 05:38:23;;;;;;;33.30;23.67;;;14.00;99.90;;;;;;5119657;28;20210;-92
2022/09/24 05:40:50;;;;;;;35.80;24.87;;;14.00;99.90;;;;;;5126150;28;20188;-90
2022/09/24 05:43:19;;;;;;;34.77;24.43;;;13.90;99.90;;;;;;5132932;28;20219;-90
2022/09/24 05:45:46;;;;;;;38.00;26.07;;;14.00;99.90;;;;;;5135650;28;20211;-90
2022/09/24 05:48:13;;;;;;;36.73;26.17;;;14.00;99.90;;;;;;5136405;28;20208;-91
2022/09/24 05:50:41;;;;;;;38.50;27.23;;;13.80;99.90;;;;;;5138782;28;20224;-92
2022/09/24 05:53:09;;;;;;;38.50;27.40;;;13.90;99.90;;;;;;5138362;28;20261;-92
2022/09/24 05:55:36;;;;;;;37.70;27.07;;;13.90;99.90;;;;;;5133560;27;20234;-93
2022/09/24 05:58:05;;;;;;;37.13;26.63;;;13.80;99.90;;;;;;5161688;27;20210;-92
2022/09/24 06:00:32;;;;;;;37.33;26.43;;;13.80;99.90;;;;;;5159675;27;20894;-93
2022/09/24 06:03:04;;;;;;;35.73;25.73;;;13.80;99.90;;;;;;5142365;27;20211;-91
2022/09/24 06:05:33;;;;;;;33.07;25.27;;;13.70;99.90;;;;;;5143385;27;20248;-90
2022/09/24 06:08:02;;;;;;;35.63;25.87;;;13.70;99.90;;;;;;5158333;27;20226;-93
2022/09/24 06:10:30;;;;;;;35.90;27.03;;;13.80;99.90;;;;;;5154373;27;20214;-91
2022/09/24 06:12:58;;;;;;;36.37;26.17;;;13.70;99.90;;;;;;5138824;28;20248;-92
2022/09/24 06:15:27;;;;;;;35.33;26.60;;;13.80;99.90;;;;;;5139655;28;20235;-90
2022/09/24 06:17:54;;;;;;;38.73;27.03;;;13.90;99.90;;;;;;5135548;28;20188;-90
2022/09/24 06:20:27;;;;;;;38.27;26.00;;;13.90;99.90;;;;;;5144575;27;20221;-91
2022/09/24 06:22:56;;;;;;;36.80;28.10;;;14.00;99.90;;;;;;5155690;27;20196;-91
2022/09/24 06:25:25;;;;;;;38.07;27.00;;;14.00;99.90;;;;;;5144762;27;20204;-87
2022/09/24 06:27:59;;;;;;;39.07;27.30;;;14.00;99.90;;;;;;5141617;27;20199;-87
2022/09/24 06:30:29;;;;;;;36.47;26.40;;;14.00;99.90;;;;;;5140683;27;20196;-88
2022/09/24 06:33:03;;;;;;;36.87;26.60;;;14.00;99.90;;;;;;5144094;27;20214;-89
2022/09/24 06:35:30;;;;;;;37.33;27.40;;;13.90;99.90;;;;;;5142968;27;20207;-85
2022/09/24 06:37:58;;;;;;;38.47;26.57;;;13.90;99.90;;;;;;5142324;27;20198;-91
2022/09/24 06:40:27;;;;;;;38.13;26.40;;;13.90;99.90;;;;;;5141592;27;20274;-89
2022/09/24 06:42:54;;;;;;;36.00;26.23;;;13.80;99.90;;;;;;5142001;27;20224;-90
2022/09/24 06:45:21;;;;;;;39.97;26.47;;;13.80;99.90;;;;;;5142253;27;20199;-92
2022/09/24 06:47:53;;;;;;;34.47;26.10;;;13.70;99.90;;;;;;5139541;27;20215;-90
2022/09/24 06:50:20;;;;;;;36.00;25.67;;;13.80;99.90;;;;;;5138447;27;20655;-90
2022/09/24 06:52:47;;;;;;;35.83;25.77;;;13.90;99.90;;;;;;5138113;27;20569;-90
2022/09/24 06:55:14;;;;;;;40.70;27.83;;;13.80;99.90;;;;;;5138294;27;20195;-91
2022/09/24 06:57:43;;;;;;;38.37;27.43;;;13.70;99.90;;;;;;5137788;27;20195;-90
2022/09/24 07:00:11;;;;;;;36.70;32.07;;;13.80;99.90;;;;;;5136663;27;20449;-91
2022/09/24 07:02:39;;;;;;;34.90;26.87;;;13.80;99.90;;;;;;5119460;27;20461;-91
2022/09/24 07:05:07;;;;;;;36.63;26.17;;;13.70;99.90;;;;;;5122646;27;20199;-90
2022/09/24 07:07:34;;;;;;;36.40;24.77;;;13.70;99.90;;;;;;5118665;27;20200;-90
2022/09/24 07:10:02;;;;;;;34.60;25.10;;;13.70;99.90;;;;;;5121298;28;20268;-88
2022/09/24 07:12:30;;;;;;;36.80;26.07;;;13.70;99.90;;;;;;5118058;28;20236;-86
2022/09/24 07:14:59;;;;;;;38.07;26.20;;;13.80;99.90;;;;;;5116948;28;20207;-88
2022/09/24 07:17:27;;;;;;;32.57;25.47;;;13.80;99.90;;;;;;5117257;28;20208;-89
2022/09/24 07:19:54;;;;;;;37.30;26.40;;;13.80;99.90;;;;;;5117180;28;20232;-89
2022/09/24 07:22:21;;;;;;;31.33;24.47;;;13.90;99.90;;;;;;5117756;28;20208;-88
2022/09/24 07:24:49;;;;;;;40.17;27.17;;;13.90;99.90;;;;;;5116814;28;20292;-89
2022/09/24 07:27:16;;;;;;;39.40;32.03;;;13.90;99.90;;;;;;5117181;28;20456;-89
2022/09/24 07:29:43;;;;;;;32.83;25.33;;;14.00;99.90;;;;;;5117212;28;20206;-90
2022/09/24 07:32:11;;;;;;;32.07;25.17;;;13.90;99.90;;;;;;5117562;28;20319;-89
2022/09/24 07:34:40;;;;;;;29.73;23.33;;;13.90;99.90;;;;;;5116325;28;20201;-89
2022/09/24 07:37:07;;;;;;;32.00;24.27;;;14.00;99.90;;;;;;5117593;28;20669;-89
2022/09/24 07:39:34;;;;;;;31.67;24.03;;;14.10;99.90;;;;;;5135465;27;20283;-89
2022/09/24 07:42:01;;;;;;;35.20;24.07;;;14.00;99.90;;;;;;5141595;27;20223;-91
2022/09/24 07:44:29;;;;;;;30.57;23.90;;;14.00;99.90;;;;;;5126929;27;20207;-89
2022/09/24 07:46:57;;;;;;;33.20;24.23;;;14.00;99.90;;;;;;5136488;27;20188;-88
2022/09/24 07:49:27;;;;;;;31.70;24.57;;;13.90;99.90;;;;;;5125446;27;20202;-90
2022/09/24 07:51:54;;;;;;;31.40;24.47;;;13.90;99.90;;;;;;5127430;27;20667;-89
2022/09/24 07:54:21;;;;;;;31.10;23.43;;;14.00;99.90;;;;;;5125981;27;20279;-89
2022/09/24 07:56:48;;;;;;;36.57;25.17;;;13.90;99.90;;;;;;5128052;27;20285;-89
2022/09/24 07:59:15;;;;;;;32.40;23.90;;;14.00;99.90;;;;;;5136395;27;20318;-89
2022/09/24 08:01:42;;;;;;;29.67;23.97;;;13.90;99.90;;;;;;5135983;27;20207;-90
2022/09/24 08:04:09;;;;;;;33.37;24.43;;;14.00;99.90;;;;;;5135393;27;20196;-90
2022/09/24 08:06:37;;;;;;;36.57;24.00;;;14.10;99.90;;;;;;5135927;27;20199;-89
2022/09/24 08:09:05;;;;;;;31.80;24.13;;;14.10;99.90;;;;;;5136003;27;20635;-89
2022/09/24 08:11:32;;;;;;;31.23;23.33;;;14.20;99.90;;;;;;5131961;27;20271;-86
2022/09/24 08:13:59;;;;;;;30.33;22.77;;;14.30;99.90;;;;;;5123971;27;20197;-89
2022/09/24 08:16:26;;;;;;;30.60;23.60;;;14.10;99.90;;;;;;5119139;27;20193;-89
2022/09/24 08:18:54;;;;;;;30.97;22.30;;;14.30;99.90;;;;;;5123203;27;20218;-89
2022/09/24 08:21:21;;;;;;;27.80;22.60;;;14.30;99.90;;;;;;5123964;27;20299;-89
2022/09/24 08:23:49;;;;;;;31.55;28.10;;;14.20;99.90;;;;;;5114625;28;20428;-89
2022/09/24 08:26:16;;;;;;;29.77;25.37;;;14.40;99.90;;;;;;5123000;27;20283;-89
2022/09/24 08:28:43;;;;;;;33.20;26.27;;;14.30;99.90;;;;;;5129419;27;20283;-88
2022/09/24 08:31:13;;;;;;;26.13;22.10;;;14.30;99.90;;;;;;5135841;27;20231;-89
2022/09/24 08:33:40;;;;;;;28.47;21.77;;;14.40;99.90;;;;;;5122957;27;20207;-87
2022/09/24 08:36:09;;;;;;;26.87;22.07;;;14.60;99.90;;;;;;5132497;27;20572;-85
2022/09/24 08:38:37;;;;;;;27.47;21.57;;;14.50;99.90;;;;;;5135328;27;20188;-89
2022/09/24 08:41:21;;;;;;;26.37;21.23;;;14.50;99.90;;;;;;5135727;27;20290;-87
2022/09/24 08:43:56;;;;;;;29.23;20.97;;;14.60;99.90;;;;;;5134492;27;20561;-88
2022/09/24 08:49:20;;;;;;;26.80;21.20;;;14.50;99.90;;;;;;5135666;27;20680;-88
2022/09/24 08:51:57;;;;;;;28.23;21.87;;;14.50;99.90;;;;;;5135242;27;20223;-87
2022/09/24 08:54:26;;;;;;;31.83;22.47;;;14.40;99.90;;;;;;5125310;27;20692;-87
2022/09/24 08:56:56;;;;;;;26.73;22.67;;;14.40;99.90;;;;;;5122441;27;20181;-87
2022/09/24 08:59:29;;;;;;;26.77;21.90;;;14.40;99.90;;;;;;5114945;28;20270;-88
2022/09/24 09:02:12;;;;;;;29.37;22.90;;;14.40;99.90;;;;;;5118199;28;20200;-88
2022/09/24 09:04:46;;;;;;;27.03;21.73;;;14.40;99.90;;;;;;5124107;27;20672;-87
2022/09/24 09:07:20;;;;;;;27.63;23.40;;;14.20;99.90;;;;;;5123895;27;20215;-87
2022/09/24 09:09:53;;;;;;;32.13;23.17;;;14.30;99.90;;;;;;5125292;27;20198;-88
2022/09/24 09:12:27;;;;;;;28.77;23.00;;;14.40;99.90;;;;;;5123775;27;20224;-87
2022/09/24 09:14:59;;;;;;;28.57;21.53;;;14.30;99.90;;;;;;5125017;27;20203;-82
2022/09/24 09:17:36;;;;;;;31.93;22.97;;;14.30;99.90;;;;;;5125440;27;20211;-83
2022/09/24 09:20:07;;;;;;;34.42;30.60;;;14.20;99.90;;;;;;5123792;27;20810;-84
2022/09/24 09:22:41;;;;;;;32.53;26.03;;;14.40;99.90;;;;;;5122305;27;20200;-84
2022/09/24 09:25:18;;;;;;;31.70;25.33;;;14.40;99.90;;;;;;5117034;28;20199;-85
2022/09/24 09:27:51;;;;;;;35.03;24.07;;;14.30;99.90;;;;;;5118875;28;20575;-82
2022/09/24 09:30:20;;;;;;;33.27;26.07;;;14.30;99.90;;;;;;5115131;28;20193;-90
2022/09/24 09:33:08;;;;;;;36.30;27.10;;;14.40;99.90;;;;;;5124540;27;20227;-81
2022/09/24 09:35:41;;;;;;;37.80;26.80;;;14.40;99.90;;;;;;5122314;27;20201;-85
2022/09/24 09:38:18;;;;;;;34.37;26.80;;;14.50;99.90;;;;;;5118374;28;20201;-89
2022/09/24 09:40:50;;;;;;;35.83;27.90;;;14.50;99.90;;;;;;5125147;27;20199;-83
2022/09/24 09:43:20;;;;;;;36.23;26.60;;;14.60;99.90;;;;;;5122726;27;20200;-87
2022/09/24 09:45:59;;;;;;;34.23;27.77;;;14.70;99.90;;;;;;5117605;28;20287;-86
2022/09/24 09:48:31;;;;;;;34.57;27.07;;;14.60;99.90;;;;;;5131223;27;20689;-85
2022/09/24 09:51:03;;;;;;;42.65;37.15;;;14.70;99.90;;;;;;5136472;27;20423;-87
2022/09/24 09:53:31;;;;;;;38.87;30.47;;;14.60;99.90;;;;;;5138600;27;20228;-85
2022/09/24 09:56:00;;;;;;;36.13;28.37;;;14.60;99.90;;;;;;5138415;27;20205;-85
2022/09/24 09:58:30;;;;;;;35.73;29.07;;;14.50;99.90;;;;;;5138363;27;20715;-85
2022/09/24 10:01:05;;;;;;;34.73;28.70;;;14.60;99.90;;;;;;5138462;27;20290;-88
2022/09/24 10:03:35;;;;;;;39.33;30.07;;;14.50;99.90;;;;;;5138674;27;20187;-87
2022/09/24 10:06:05;;;;;;;34.93;27.87;;;14.60;99.90;;;;;;5138049;27;20571;-85
2022/09/24 10:08:32;;;;;;;36.40;28.23;;;14.60;99.90;;;;;;5136625;27;20208;-87
2022/09/24 10:11:02;;;;;;;30.67;27.10;;;14.60;99.90;;;;;;5138032;27;20192;-85
2022/09/24 10:13:31;;;;;;;33.70;26.27;;;14.60;99.90;;;;;;5137615;27;20227;-84
2022/09/24 10:16:02;;;;;;;35.03;27.47;;;14.60;99.90;;;;;;5138575;27;20249;-86
2022/09/24 10:18:32;;;;;;;39.80;33.30;;;14.60;99.90;;;;;;5137591;27;20914;-86
2022/09/24 10:21:06;;;;;;;34.63;28.07;;;14.60;99.90;;;;;;5138025;27;20614;-85
2022/09/24 10:23:37;;;;;;;31.50;26.37;;;14.60;99.90;;;;;;5137145;27;20215;-85
2022/09/24 10:26:05;;;;;;;32.63;26.37;;;14.60;99.90;;;;;;5137462;27;20188;-85
2022/09/24 10:31:25;;;;;;;32.87;25.37;;;14.80;99.90;;;;;;5137602;27;20273;-84
2022/09/24 10:33:55;;;;;;;32.17;27.00;;;14.80;99.90;;;;;;5137240;27;20247;-85
2022/09/24 10:36:24;;;;;;;34.20;27.17;;;14.80;99.90;;;;;;5137609;27;20200;-86
2022/09/24 10:39:02;;;;;;;30.73;25.70;;;14.80;99.90;;;;;;5137050;27;20197;-84
2022/09/24 10:41:30;;;;;;;29.73;25.43;;;14.90;99.90;;;;;;5136315;27;20198;-87
2022/09/24 10:44:03;;;;;;;32.67;26.83;;;14.80;99.90;;;;;;5135828;27;20214;-88
2022/09/24 10:47:06;;;;;;;33.72;26.35;;;14.70;99.90;;;;;;5136888;27;20932;-86
2022/09/24 10:50:00;;;;;;;33.43;26.13;;;14.70;99.90;;;;;;5073799;28;20282;-86
2022/09/24 10:52:44;;;;;;;33.43;26.87;;;14.90;99.90;;;;;;5110311;27;20598;-85
2022/09/24 10:55:42;;;;;;;30.10;25.37;;;14.90;99.90;;;;;;5136985;27;20287;-86
2022/09/24 10:58:24;;;;;;;29.97;24.53;;;14.80;99.90;;;;;;5134256;27;20307;-86
2022/09/24 11:01:03;;;;;;;29.23;24.23;;;14.70;99.90;;;;;;5134111;27;20649;-86
2022/09/24 11:03:52;;;;;;;31.57;25.70;;;14.70;99.90;;;;;;5131261;27;20571;-86
2022/09/24 11:06:33;;;;;;;27.47;24.47;;;14.70;99.90;;;;;;5130446;27;20208;-86
2022/09/24 11:09:13;;;;;;;31.37;25.17;;;14.70;99.90;;;;;;5116826;27;20202;-86
2022/09/24 11:11:51;;;;;;;31.47;24.27;;;14.80;99.90;;;;;;5115999;28;20646;-86
2022/09/24 11:14:30;;;;;;;30.37;24.20;;;14.80;99.90;;;;;;5116021;28;20221;-87
2022/09/24 11:17:31;;;;;;;34.47;25.73;;;14.60;99.90;;;;;;5123790;27;20290;-86
2022/09/24 11:20:23;;;;;;;28.37;24.47;;;14.60;99.90;;;;;;5131888;27;20323;-86
2022/09/24 11:23:11;;;;;;;25.20;21.20;;;14.70;99.90;;;;;;5116018;28;20665;-86
2022/09/24 11:25:43;;;;;;;25.63;21.33;;;14.90;99.90;;;;;;5109241;28;20636;-86
2022/09/24 11:28:34;;;;;;;26.40;21.40;;;15.00;99.90;;;;;;5117310;27;20288;-86
2022/09/24 11:31:13;;;;;;;26.60;20.70;;;15.10;99.90;;;;;;5124727;27;20291;-86
2022/09/24 11:34:07;;;;;;;27.37;20.47;;;15.20;99.90;;;;;;5115498;28;20228;-86
2022/09/24 11:36:51;;;;;;;26.77;21.27;;;15.00;99.90;;;;;;5130023;27;20205;-86
2022/09/24 11:39:42;;;;;;;25.47;21.73;;;15.00;99.90;;;;;;5115285;28;20568;-85
2022/09/24 11:42:20;;;;;;;24.27;20.97;;;15.10;99.90;;;;;;5130068;27;20205;-86
2022/09/24 11:45:11;;;;;;;25.83;21.50;;;15.20;99.90;;;;;;5115016;28;20580;-84
2022/09/24 11:47:53;;;;;;;24.37;20.30;;;15.30;99.90;;;;;;5115208;28;20554;-84
2022/09/24 11:50:35;;;;;;;25.83;20.93;;;15.50;99.90;;;;;;5115429;28;20217;-84
2022/09/24 11:53:06;;;;;;;27.50;21.80;;;15.50;99.90;;;;;;5124479;27;20238;-84
2022/09/24 11:55:39;;;;;;;33.30;24.83;;;15.50;99.90;;;;;;5118290;27;20293;-85
2022/09/24 11:58:14;;;;;;;26.43;21.03;;;15.40;99.90;;;;;;5114823;28;20226;-86
2022/09/24 12:00:47;;;;;;;27.60;19.87;;;15.20;99.90;;;;;;5115030;28;20768;-86
2022/09/24 12:03:19;;;;;;;28.30;21.23;;;14.90;99.90;;;;;;5115406;28;20698;-86
2022/09/24 12:05:55;;;;;;;16.57;14.63;;;14.80;99.90;;;;;;5115050;28;20200;-86
2022/09/24 12:08:30;;;;;;;14.87;12.67;;;14.70;99.90;;;;;;5115489;28;20212;-87
2022/09/24 12:11:03;;;;;;;8.87;6.07;;;14.60;99.90;;;;;;5115500;28;20208;-87
2022/09/24 12:13:42;;;;;;;9.80;5.93;;;14.60;99.90;;;;;;5115705;28;20234;-87
2022/09/24 12:16:15;;;;;;;6.67;4.60;;;14.50;99.90;;;;;;5118612;27;20230;-87
2022/09/24 12:18:51;;;;;;;6.73;3.67;;;14.50;99.90;;;;;;5125966;27;20206;-88
2022/09/24 12:21:25;;;;;;;4.30;3.60;;;14.60;99.90;;;;;;5115129;28;20204;-88
2022/09/24 12:23:55;;;;;;;3.73;3.30;;;14.60;99.90;;;;;;5114948;28;20235;-87
2022/09/24 12:26:24;;;;;;;4.30;3.50;;;14.60;99.90;;;;;;5114436;28;20224;-77
2022/09/24 12:34:49;;;;;;;6.93;3.23;;;14.60;99.90;;;;;;5114196;28;20243;-89
2022/09/24 12:37:21;;;;;;;7.03;3.53;;;14.60;99.90;;;;;;5123992;27;20227;-89
2022/09/24 12:39:54;;;;;;;5.57;3.60;;;14.70;99.90;;;;;;5118966;27;20197;-92
2022/09/24 12:42:23;;;;;;;6.40;4.17;;;14.60;99.90;;;;;;5114603;28;20269;-91
2022/09/24 12:44:54;;;;;;;6.20;3.53;;;14.70;99.90;;;;;;5114080;28;20576;-88
2022/09/24 12:47:23;;;;;;;7.20;3.73;;;14.70;99.90;;;;;;5115642;28;20219;-90
2022/09/24 12:49:54;;;;;;;5.93;3.80;;;14.60;99.90;;;;;;5114305;28;20617;-88
2022/09/24 12:52:31;;;;;;;5.27;4.13;;;14.70;99.90;;;;;;5114812;28;20653;-88
2022/09/24 12:55:01;;;;;;;9.83;5.00;;;14.60;99.90;;;;;;5115755;28;20284;-87
2022/09/24 12:57:40;;;;;;;7.80;5.17;;;14.60;99.90;;;;;;5117835;28;20271;-87
2022/09/24 13:00:38;;;;;;;14.57;5.30;;;14.50;99.90;;;;;;5115968;28;20247;-87
2022/09/24 13:03:27;;;;;;;8.73;4.50;;;14.50;99.90;;;;;;5116643;28;20204;-89
2022/09/24 13:06:00;;;;;;;9.90;4.20;;;14.40;99.90;;;;;;5117006;28;20196;-88
2022/09/24 13:08:39;;;;;;;7.80;4.67;;;14.40;99.90;;;;;;5128486;27;20562;-92
2022/09/24 13:11:26;;;;;;;9.90;4.30;;;14.40;99.90;;;;;;5119511;28;20200;-93